sensor_id;sensor_type;location;lat;lon;timestamp;temperature;humidity
80228;DHT22;69539;42.138;24.742;2023-04-25T10:24:20;22.80;38.00
80228;DHT22;69539;42.138;24.742;2023-04-25T10:26:47;22.80;38.90
80228;DHT22;69539;42.138;24.742;2023-04-25T10:29:24;22.90;38.80
80228;DHT22;69539;42.138;24.742;2023-04-25T10:31:50;23.00;38.30
80228;DHT22;69539;42.138;24.742;2023-04-25T10:34:16;23.20;37.80
80228;DHT22;69539;42.138;24.742;2023-04-25T10:36:42;23.30;37.40
80228;DHT22;69539;42.138;24.742;2023-04-25T10:39:08;23.50;36.80
80228;DHT22;69539;42.138;24.742;2023-04-25T10:41:58;23.60;36.30
80228;DHT22;69539;42.138;24.742;2023-04-25T10:44:31;23.70;36.30
80228;DHT22;69539;42.138;24.742;2023-04-25T10:47:00;23.80;35.90
80228;DHT22;69539;42.138;24.742;2023-04-25T10:54:53;24.00;35.40
80228;DHT22;69539;42.138;24.742;2023-04-25T10:57:41;24.00;35.20
80228;DHT22;69539;42.138;24.742;2023-04-25T11:00:11;24.10;35.10
80228;DHT22;69539;42.138;24.742;2023-04-25T11:02:45;24.10;34.90
80228;DHT22;69539;42.138;24.742;2023-04-25T11:05:33;24.10;34.70
80228;DHT22;69539;42.138;24.742;2023-04-25T11:07:59;24.20;34.50
80228;DHT22;69539;42.138;24.742;2023-04-25T11:10:29;24.30;34.50
80228;DHT22;69539;42.138;24.742;2023-04-25T11:12:56;24.20;34.30
80228;DHT22;69539;42.138;24.742;2023-04-25T11:15:22;24.30;34.30
80228;DHT22;69539;42.138;24.742;2023-04-25T11:17:48;24.30;34.40
80228;DHT22;69539;42.138;24.742;2023-04-25T11:20:14;24.30;34.10
80228;DHT22;69539;42.138;24.742;2023-04-25T11:22:41;24.30;34.20
80228;DHT22;69539;42.138;24.742;2023-04-25T11:25:08;24.30;34.20
80228;DHT22;69539;42.138;24.742;2023-04-25T11:27:34;24.30;34.10
80228;DHT22;69539;42.138;24.742;2023-04-25T11:30:10;24.30;34.10
80228;DHT22;69539;42.138;24.742;2023-04-25T11:32:36;24.30;34.00
80228;DHT22;69539;42.138;24.742;2023-04-25T11:35:02;24.30;33.90
80228;DHT22;69539;42.138;24.742;2023-04-25T11:37:28;24.30;33.80
80228;DHT22;69539;42.138;24.742;2023-04-25T11:39:54;24.30;33.80
80228;DHT22;69539;42.138;24.742;2023-04-25T11:42:19;24.40;33.70
80228;DHT22;69539;42.138;24.742;2023-04-25T11:44:45;24.30;33.70
80228;DHT22;69539;42.138;24.742;2023-04-25T11:47:11;24.30;33.60
80228;DHT22;69539;42.138;24.742;2023-04-25T11:49:37;24.40;33.60
80228;DHT22;69539;42.138;24.742;2023-04-25T11:52:03;24.40;33.70
80228;DHT22;69539;42.138;24.742;2023-04-25T11:54:31;24.40;33.70
80228;DHT22;69539;42.138;24.742;2023-04-25T11:56:57;24.40;33.70
80228;DHT22;69539;42.138;24.742;2023-04-25T11:59:23;24.40;33.70
80228;DHT22;69539;42.138;24.742;2023-04-25T12:01:50;24.40;33.70
80228;DHT22;69539;42.138;24.742;2023-04-25T12:04:21;24.40;33.60
80228;DHT22;69539;42.138;24.742;2023-04-25T12:06:49;24.40;33.60
80228;DHT22;69539;42.138;24.742;2023-04-25T12:09:16;24.40;33.60
80228;DHT22;69539;42.138;24.742;2023-04-25T12:11:49;24.40;33.50
80228;DHT22;69539;42.138;24.742;2023-04-25T12:14:22;24.40;33.60
80228;DHT22;69539;42.138;24.742;2023-04-25T12:16:50;24.50;33.60
80228;DHT22;69539;42.138;24.742;2023-04-25T12:19:17;24.40;33.40
80228;DHT22;69539;42.138;24.742;2023-04-25T12:21:44;24.40;33.50
80228;DHT22;69539;42.138;24.742;2023-04-25T12:24:15;24.50;33.60
80228;DHT22;69539;42.138;24.742;2023-04-25T12:26:58;24.50;33.50
80228;DHT22;69539;42.138;24.742;2023-04-25T12:29:27;24.50;33.50
80228;DHT22;69539;42.138;24.742;2023-04-25T12:31:54;24.50;33.50
80228;DHT22;69539;42.138;24.742;2023-04-25T12:34:21;24.50;33.60
80228;DHT22;69539;42.138;24.742;2023-04-25T12:36:47;24.60;33.60
80228;DHT22;69539;42.138;24.742;2023-04-25T12:39:16;24.60;33.60
80228;DHT22;69539;42.138;24.742;2023-04-25T12:41:43;24.60;33.70
80228;DHT22;69539;42.138;24.742;2023-04-25T12:44:08;24.60;33.60
80228;DHT22;69539;42.138;24.742;2023-04-25T12:46:34;24.60;33.60
80228;DHT22;69539;42.138;24.742;2023-04-25T12:49:00;24.60;33.60
80228;DHT22;69539;42.138;24.742;2023-04-25T12:51:26;24.60;33.60
80228;DHT22;69539;42.138;24.742;2023-04-25T12:53:53;24.60;33.40
80228;DHT22;69539;42.138;24.742;2023-04-25T12:56:19;24.70;33.50
80228;DHT22;69539;42.138;24.742;2023-04-25T12:58:45;24.60;33.40
80228;DHT22;69539;42.138;24.742;2023-04-25T13:01:10;24.60;33.50
80228;DHT22;69539;42.138;24.742;2023-04-25T13:03:37;24.70;33.40
80228;DHT22;69539;42.138;24.742;2023-04-25T13:06:03;24.60;33.30
80228;DHT22;69539;42.138;24.742;2023-04-25T13:08:30;24.60;33.40
80228;DHT22;69539;42.138;24.742;2023-04-25T13:10:55;24.60;33.40
80228;DHT22;69539;42.138;24.742;2023-04-25T13:13:21;24.60;33.40
80228;DHT22;69539;42.138;24.742;2023-04-25T13:15:46;24.60;33.70
80228;DHT22;69539;42.138;24.742;2023-04-25T13:18:13;24.60;34.00
80228;DHT22;69539;42.138;24.742;2023-04-25T13:20:38;24.60;33.80
80228;DHT22;69539;42.138;24.742;2023-04-25T13:23:04;24.60;33.80
80228;DHT22;69539;42.138;24.742;2023-04-25T13:25:29;24.60;33.80
80228;DHT22;69539;42.138;24.742;2023-04-25T13:27:55;24.60;33.60
80228;DHT22;69539;42.138;24.742;2023-04-25T13:30:21;24.60;33.30
80228;DHT22;69539;42.138;24.742;2023-04-25T13:32:46;24.60;33.10
80228;DHT22;69539;42.138;24.742;2023-04-25T13:35:13;24.60;33.00
80228;DHT22;69539;42.138;24.742;2023-04-25T13:37:40;24.60;33.00
80228;DHT22;69539;42.138;24.742;2023-04-25T13:40:09;24.60;32.60
80228;DHT22;69539;42.138;24.742;2023-04-25T13:42:37;24.60;32.30
80228;DHT22;69539;42.138;24.742;2023-04-25T13:45:04;24.60;31.60
80228;DHT22;69539;42.138;24.742;2023-04-25T13:47:30;24.50;31.10
80228;DHT22;69539;42.138;24.742;2023-04-25T13:49:56;24.50;31.10
80228;DHT22;69539;42.138;24.742;2023-04-25T13:52:22;24.50;31.00
80228;DHT22;69539;42.138;24.742;2023-04-25T13:54:50;24.50;31.00
80228;DHT22;69539;42.138;24.742;2023-04-25T13:57:16;24.50;30.90
80228;DHT22;69539;42.138;24.742;2023-04-25T13:59:42;24.50;31.00
80228;DHT22;69539;42.138;24.742;2023-04-25T14:02:08;24.60;31.10
80228;DHT22;69539;42.138;24.742;2023-04-25T14:04:34;24.60;31.00
80228;DHT22;69539;42.138;24.742;2023-04-25T14:07:00;24.60;30.90
80228;DHT22;69539;42.138;24.742;2023-04-25T14:09:26;24.60;30.90
80228;DHT22;69539;42.138;24.742;2023-04-25T14:11:52;24.60;30.80
80228;DHT22;69539;42.138;24.742;2023-04-25T14:14:19;24.70;30.70
80228;DHT22;69539;42.138;24.742;2023-04-25T14:16:45;24.70;30.60
80228;DHT22;69539;42.138;24.742;2023-04-25T14:19:11;24.80;30.80
80228;DHT22;69539;42.138;24.742;2023-04-25T14:21:37;24.80;30.80
80228;DHT22;69539;42.138;24.742;2023-04-25T14:24:03;24.80;30.80
80228;DHT22;69539;42.138;24.742;2023-04-25T14:26:30;24.80;30.70
80228;DHT22;69539;42.138;24.742;2023-04-25T14:28:56;24.80;30.70
80228;DHT22;69539;42.138;24.742;2023-04-25T14:31:22;24.90;30.70
80228;DHT22;69539;42.138;24.742;2023-04-25T14:33:47;24.90;30.50
80228;DHT22;69539;42.138;24.742;2023-04-25T14:36:13;25.00;30.60
80228;DHT22;69539;42.138;24.742;2023-04-25T14:38:39;25.00;30.60
80228;DHT22;69539;42.138;24.742;2023-04-25T14:41:05;25.00;30.30
80228;DHT22;69539;42.138;24.742;2023-04-25T14:43:31;25.10;30.40
80228;DHT22;69539;42.138;24.742;2023-04-25T14:45:56;25.10;30.40
80228;DHT22;69539;42.138;24.742;2023-04-25T14:48:22;25.10;30.50
80228;DHT22;69539;42.138;24.742;2023-04-25T14:50:48;25.10;30.60
80228;DHT22;69539;42.138;24.742;2023-04-25T14:53:14;25.10;31.70
80228;DHT22;69539;42.138;24.742;2023-04-25T14:55:40;25.10;30.40
80228;DHT22;69539;42.138;24.742;2023-04-25T14:58:06;25.10;30.60
80228;DHT22;69539;42.138;24.742;2023-04-25T15:00:32;25.10;30.40
80228;DHT22;69539;42.138;24.742;2023-04-25T15:02:58;25.00;30.00
80228;DHT22;69539;42.138;24.742;2023-04-25T15:05:24;25.00;29.80
80228;DHT22;69539;42.138;24.742;2023-04-25T15:07:50;25.00;29.80
80228;DHT22;69539;42.138;24.742;2023-04-25T15:10:17;25.00;29.80
80228;DHT22;69539;42.138;24.742;2023-04-25T15:12:43;24.90;29.50
80228;DHT22;69539;42.138;24.742;2023-04-25T15:15:10;24.90;29.50
80228;DHT22;69539;42.138;24.742;2023-04-25T15:17:40;24.90;29.60
80228;DHT22;69539;42.138;24.742;2023-04-25T15:20:07;24.90;29.60
80228;DHT22;69539;42.138;24.742;2023-04-25T15:22:38;24.90;29.30
80228;DHT22;69539;42.138;24.742;2023-04-25T15:25:05;24.80;29.20
80228;DHT22;69539;42.138;24.742;2023-04-25T15:27:33;24.80;29.30
80228;DHT22;69539;42.138;24.742;2023-04-25T15:29:59;24.80;29.30
80228;DHT22;69539;42.138;24.742;2023-04-25T15:32:24;24.80;28.80
80228;DHT22;69539;42.138;24.742;2023-04-25T15:34:51;24.90;28.90
80228;DHT22;69539;42.138;24.742;2023-04-25T15:37:16;24.80;28.90
80228;DHT22;69539;42.138;24.742;2023-04-25T15:39:44;24.80;29.00
80228;DHT22;69539;42.138;24.742;2023-04-25T15:42:09;24.80;29.00
80228;DHT22;69539;42.138;24.742;2023-04-25T15:44:35;24.80;29.00
80228;DHT22;69539;42.138;24.742;2023-04-25T15:47:01;24.80;28.90
80228;DHT22;69539;42.138;24.742;2023-04-25T15:49:26;24.80;28.90
80228;DHT22;69539;42.138;24.742;2023-04-25T15:51:53;24.80;28.90
80228;DHT22;69539;42.138;24.742;2023-04-25T15:54:18;24.70;28.80
80228;DHT22;69539;42.138;24.742;2023-04-25T15:56:44;24.70;28.90
80228;DHT22;69539;42.138;24.742;2023-04-25T15:59:10;24.70;28.80
80228;DHT22;69539;42.138;24.742;2023-04-25T16:01:36;24.80;28.70
80228;DHT22;69539;42.138;24.742;2023-04-25T16:04:02;24.80;28.60
80228;DHT22;69539;42.138;24.742;2023-04-25T16:06:28;24.80;28.60
80228;DHT22;69539;42.138;24.742;2023-04-25T16:08:54;24.80;28.70
80228;DHT22;69539;42.138;24.742;2023-04-25T16:11:20;24.80;28.20
80228;DHT22;69539;42.138;24.742;2023-04-25T16:13:46;24.80;28.00
80228;DHT22;69539;42.138;24.742;2023-04-25T16:16:12;24.70;27.90
80228;DHT22;69539;42.138;24.742;2023-04-25T16:18:38;24.70;28.00
80228;DHT22;69539;42.138;24.742;2023-04-25T16:21:03;24.70;27.80
80228;DHT22;69539;42.138;24.742;2023-04-25T16:23:29;24.70;27.70
80228;DHT22;69539;42.138;24.742;2023-04-25T16:25:55;24.70;27.80
80228;DHT22;69539;42.138;24.742;2023-04-25T16:28:21;24.60;27.90
80228;DHT22;69539;42.138;24.742;2023-04-25T16:30:47;24.60;27.80
80228;DHT22;69539;42.138;24.742;2023-04-25T16:33:13;24.60;27.70
80228;DHT22;69539;42.138;24.742;2023-04-25T16:35:38;24.60;27.60
80228;DHT22;69539;42.138;24.742;2023-04-25T16:38:04;24.60;27.60
80228;DHT22;69539;42.138;24.742;2023-04-25T16:40:30;24.60;27.60
80228;DHT22;69539;42.138;24.742;2023-04-25T16:42:55;24.60;27.80
80228;DHT22;69539;42.138;24.742;2023-04-25T16:45:21;24.60;27.90
80228;DHT22;69539;42.138;24.742;2023-04-25T16:47:47;24.60;27.90
80228;DHT22;69539;42.138;24.742;2023-04-25T16:50:13;24.50;28.00
80228;DHT22;69539;42.138;24.742;2023-04-25T16:52:39;24.60;28.00
80228;DHT22;69539;42.138;24.742;2023-04-25T16:55:05;24.60;28.20
80228;DHT22;69539;42.138;24.742;2023-04-25T16:57:35;24.50;28.20
80228;DHT22;69539;42.138;24.742;2023-04-25T17:00:05;24.50;28.30
80228;DHT22;69539;42.138;24.742;2023-04-25T17:02:30;24.50;28.40
80228;DHT22;69539;42.138;24.742;2023-04-25T17:04:56;24.50;28.40
80228;DHT22;69539;42.138;24.742;2023-04-25T17:07:22;24.50;28.50
80228;DHT22;69539;42.138;24.742;2023-04-25T17:09:49;24.50;28.60
80228;DHT22;69539;42.138;24.742;2023-04-25T17:12:16;24.50;28.60
80228;DHT22;69539;42.138;24.742;2023-04-25T17:14:41;24.40;28.70
80228;DHT22;69539;42.138;24.742;2023-04-25T17:17:08;24.40;28.70
80228;DHT22;69539;42.138;24.742;2023-04-25T17:19:34;24.40;28.80
80228;DHT22;69539;42.138;24.742;2023-04-25T17:21:59;24.40;28.80
80228;DHT22;69539;42.138;24.742;2023-04-25T17:24:25;24.40;28.80
80228;DHT22;69539;42.138;24.742;2023-04-25T17:26:51;24.30;28.80
80228;DHT22;69539;42.138;24.742;2023-04-25T17:29:17;24.30;28.90
80228;DHT22;69539;42.138;24.742;2023-04-25T17:31:43;24.30;28.90
80228;DHT22;69539;42.138;24.742;2023-04-25T17:34:09;24.30;29.00
80228;DHT22;69539;42.138;24.742;2023-04-25T17:36:36;24.30;29.10
80228;DHT22;69539;42.138;24.742;2023-04-25T17:39:01;24.30;29.10
80228;DHT22;69539;42.138;24.742;2023-04-25T17:41:30;24.30;29.10
80228;DHT22;69539;42.138;24.742;2023-04-25T17:43:56;24.30;29.10
80228;DHT22;69539;42.138;24.742;2023-04-25T17:46:21;24.30;29.20
80228;DHT22;69539;42.138;24.742;2023-04-25T17:48:47;24.30;29.30
80228;DHT22;69539;42.138;24.742;2023-04-25T17:51:13;24.20;29.30
80228;DHT22;69539;42.138;24.742;2023-04-25T17:53:39;24.20;29.30
80228;DHT22;69539;42.138;24.742;2023-04-25T17:56:05;24.20;29.30
80228;DHT22;69539;42.138;24.742;2023-04-25T17:58:32;24.20;29.30
80228;DHT22;69539;42.138;24.742;2023-04-25T18:00:57;24.20;29.30
80228;DHT22;69539;42.138;24.742;2023-04-25T18:03:23;24.20;29.30
80228;DHT22;69539;42.138;24.742;2023-04-25T18:05:49;24.20;29.30
80228;DHT22;69539;42.138;24.742;2023-04-25T18:08:14;24.20;29.30
80228;DHT22;69539;42.138;24.742;2023-04-25T18:10:40;24.20;30.10
80228;DHT22;69539;42.138;24.742;2023-04-25T18:13:06;24.10;29.30
80228;DHT22;69539;42.138;24.742;2023-04-25T18:15:33;24.20;29.40
80228;DHT22;69539;42.138;24.742;2023-04-25T18:17:59;24.10;29.40
80228;DHT22;69539;42.138;24.742;2023-04-25T18:20:27;24.10;29.40
80228;DHT22;69539;42.138;24.742;2023-04-25T18:22:52;24.10;29.40
80228;DHT22;69539;42.138;24.742;2023-04-25T18:25:18;24.10;29.40
80228;DHT22;69539;42.138;24.742;2023-04-25T18:27:44;24.10;29.50
80228;DHT22;69539;42.138;24.742;2023-04-25T18:30:11;24.10;29.40
80228;DHT22;69539;42.138;24.742;2023-04-25T18:32:37;24.10;29.40
80228;DHT22;69539;42.138;24.742;2023-04-25T18:35:03;24.10;29.50
80228;DHT22;69539;42.138;24.742;2023-04-25T18:37:29;24.10;29.50
80228;DHT22;69539;42.138;24.742;2023-04-25T18:39:55;24.10;29.50
80228;DHT22;69539;42.138;24.742;2023-04-25T18:42:20;24.10;29.50
80228;DHT22;69539;42.138;24.742;2023-04-25T18:44:46;24.10;29.60
80228;DHT22;69539;42.138;24.742;2023-04-25T18:47:12;24.10;29.50
80228;DHT22;69539;42.138;24.742;2023-04-25T18:49:39;24.10;29.50
80228;DHT22;69539;42.138;24.742;2023-04-25T18:52:05;24.10;29.50
80228;DHT22;69539;42.138;24.742;2023-04-25T18:54:36;24.10;29.60
80228;DHT22;69539;42.138;24.742;2023-04-25T18:57:03;24.00;29.50
80228;DHT22;69539;42.138;24.742;2023-04-25T18:59:30;24.10;29.60
80228;DHT22;69539;42.138;24.742;2023-04-25T19:01:57;24.00;29.50
80228;DHT22;69539;42.138;24.742;2023-04-25T19:04:22;24.00;29.60
80228;DHT22;69539;42.138;24.742;2023-04-25T19:06:48;24.00;29.60
80228;DHT22;69539;42.138;24.742;2023-04-25T19:09:15;24.00;29.60
80228;DHT22;69539;42.138;24.742;2023-04-25T19:11:41;24.00;29.60
80228;DHT22;69539;42.138;24.742;2023-04-25T19:14:06;24.00;29.60
80228;DHT22;69539;42.138;24.742;2023-04-25T19:16:32;24.00;29.60
80228;DHT22;69539;42.138;24.742;2023-04-25T19:19:03;24.00;29.60
80228;DHT22;69539;42.138;24.742;2023-04-25T19:21:30;24.00;29.70
80228;DHT22;69539;42.138;24.742;2023-04-25T19:23:57;24.00;29.60
80228;DHT22;69539;42.138;24.742;2023-04-25T19:26:23;24.00;29.70
80228;DHT22;69539;42.138;24.742;2023-04-25T19:29:08;24.00;29.70
80228;DHT22;69539;42.138;24.742;2023-04-25T19:31:36;24.00;29.70
80228;DHT22;69539;42.138;24.742;2023-04-25T19:34:02;24.00;29.70
80228;DHT22;69539;42.138;24.742;2023-04-25T19:36:29;24.00;29.70
80228;DHT22;69539;42.138;24.742;2023-04-25T19:38:55;24.00;29.70
80228;DHT22;69539;42.138;24.742;2023-04-25T19:41:27;24.00;29.80
80228;DHT22;69539;42.138;24.742;2023-04-25T19:43:52;24.00;29.70
80228;DHT22;69539;42.138;24.742;2023-04-25T19:46:18;24.00;29.70
80228;DHT22;69539;42.138;24.742;2023-04-25T19:48:44;24.00;29.70
80228;DHT22;69539;42.138;24.742;2023-04-25T19:51:09;24.00;29.80
80228;DHT22;69539;42.138;24.742;2023-04-25T19:53:35;24.00;29.70
80228;DHT22;69539;42.138;24.742;2023-04-25T19:56:01;24.00;29.80
80228;DHT22;69539;42.138;24.742;2023-04-25T19:58:27;24.00;29.70
80228;DHT22;69539;42.138;24.742;2023-04-25T20:00:54;23.90;29.70
80228;DHT22;69539;42.138;24.742;2023-04-25T20:03:22;24.00;29.70
80228;DHT22;69539;42.138;24.742;2023-04-25T20:05:48;23.90;29.70
80228;DHT22;69539;42.138;24.742;2023-04-25T20:08:13;24.00;29.70
80228;DHT22;69539;42.138;24.742;2023-04-25T20:10:39;23.90;29.70
80228;DHT22;69539;42.138;24.742;2023-04-25T20:13:04;24.00;29.80
80228;DHT22;69539;42.138;24.742;2023-04-25T20:15:30;23.90;29.70
80228;DHT22;69539;42.138;24.742;2023-04-25T20:17:56;24.00;29.80
80228;DHT22;69539;42.138;24.742;2023-04-25T20:20:22;23.90;29.80
80228;DHT22;69539;42.138;24.742;2023-04-25T20:22:48;24.00;29.90
80228;DHT22;69539;42.138;24.742;2023-04-25T20:25:15;23.90;29.80
80228;DHT22;69539;42.138;24.742;2023-04-25T20:27:41;24.00;29.80
80228;DHT22;69539;42.138;24.742;2023-04-25T20:30:08;23.90;29.80
80228;DHT22;69539;42.138;24.742;2023-04-25T20:32:35;23.90;29.80
80228;DHT22;69539;42.138;24.742;2023-04-25T20:35:02;23.90;29.80
80228;DHT22;69539;42.138;24.742;2023-04-25T20:37:28;23.90;29.80
80228;DHT22;69539;42.138;24.742;2023-04-25T20:40:00;23.90;29.70
80228;DHT22;69539;42.138;24.742;2023-04-25T20:42:26;23.90;29.80
80228;DHT22;69539;42.138;24.742;2023-04-25T20:44:52;23.90;29.80
80228;DHT22;69539;42.138;24.742;2023-04-25T20:47:18;23.90;29.70
80228;DHT22;69539;42.138;24.742;2023-04-25T20:49:44;23.90;29.80
80228;DHT22;69539;42.138;24.742;2023-04-25T20:52:10;23.90;29.80
80228;DHT22;69539;42.138;24.742;2023-04-25T20:54:35;23.90;29.80
80228;DHT22;69539;42.138;24.742;2023-04-25T20:57:01;23.90;29.80
80228;DHT22;69539;42.138;24.742;2023-04-25T20:59:27;23.90;29.80
80228;DHT22;69539;42.138;24.742;2023-04-25T21:01:53;23.90;29.70
80228;DHT22;69539;42.138;24.742;2023-04-25T21:04:19;23.90;29.70
80228;DHT22;69539;42.138;24.742;2023-04-25T21:06:45;23.90;29.70
80228;DHT22;69539;42.138;24.742;2023-04-25T21:09:12;23.90;29.70
80228;DHT22;69539;42.138;24.742;2023-04-25T21:11:38;23.90;29.70
80228;DHT22;69539;42.138;24.742;2023-04-25T21:14:04;23.90;30.60
80228;DHT22;69539;42.138;24.742;2023-04-25T21:16:30;23.90;29.70
80228;DHT22;69539;42.138;24.742;2023-04-25T21:18:57;23.90;29.70
80228;DHT22;69539;42.138;24.742;2023-04-25T21:21:23;23.90;29.70
80228;DHT22;69539;42.138;24.742;2023-04-25T21:23:49;23.90;29.70
80228;DHT22;69539;42.138;24.742;2023-04-25T21:26:15;23.90;29.70
80228;DHT22;69539;42.138;24.742;2023-04-25T21:28:40;23.80;29.70
80228;DHT22;69539;42.138;24.742;2023-04-25T21:31:06;23.90;29.70
80228;DHT22;69539;42.138;24.742;2023-04-25T21:33:32;23.90;29.70
80228;DHT22;69539;42.138;24.742;2023-04-25T21:35:57;23.90;29.70
80228;DHT22;69539;42.138;24.742;2023-04-25T21:38:23;23.90;29.70
80228;DHT22;69539;42.138;24.742;2023-04-25T21:40:48;23.90;29.70
80228;DHT22;69539;42.138;24.742;2023-04-25T21:43:14;23.80;29.70
80228;DHT22;69539;42.138;24.742;2023-04-25T21:45:40;23.90;29.70
80228;DHT22;69539;42.138;24.742;2023-04-25T21:48:06;23.80;29.70
80228;DHT22;69539;42.138;24.742;2023-04-25T21:50:32;23.80;29.70
80228;DHT22;69539;42.138;24.742;2023-04-25T21:52:58;23.80;29.70
80228;DHT22;69539;42.138;24.742;2023-04-25T21:55:24;23.80;29.70
80228;DHT22;69539;42.138;24.742;2023-04-25T21:57:51;23.80;29.70
80228;DHT22;69539;42.138;24.742;2023-04-25T22:00:17;23.80;29.80
80228;DHT22;69539;42.138;24.742;2023-04-25T22:02:55;23.80;29.70
80228;DHT22;69539;42.138;24.742;2023-04-25T22:05:21;23.80;29.70
80228;DHT22;69539;42.138;24.742;2023-04-25T22:07:52;23.80;29.80
80228;DHT22;69539;42.138;24.742;2023-04-25T22:10:19;23.80;29.70
80228;DHT22;69539;42.138;24.742;2023-04-25T22:12:45;23.80;29.70
80228;DHT22;69539;42.138;24.742;2023-04-25T22:15:13;23.80;29.70
80228;DHT22;69539;42.138;24.742;2023-04-25T22:17:41;23.80;29.80
80228;DHT22;69539;42.138;24.742;2023-04-25T22:20:08;23.80;29.80
80228;DHT22;69539;42.138;24.742;2023-04-25T22:22:39;23.80;29.80
80228;DHT22;69539;42.138;24.742;2023-04-25T22:25:06;23.80;29.80
80228;DHT22;69539;42.138;24.742;2023-04-25T22:27:32;23.80;29.80
80228;DHT22;69539;42.138;24.742;2023-04-25T22:29:59;23.80;29.90
80228;DHT22;69539;42.138;24.742;2023-04-25T22:32:26;23.80;29.90
80228;DHT22;69539;42.138;24.742;2023-04-25T22:34:51;23.80;29.90
80228;DHT22;69539;42.138;24.742;2023-04-25T22:37:18;23.80;29.90
80228;DHT22;69539;42.138;24.742;2023-04-25T22:39:43;23.80;29.80
80228;DHT22;69539;42.138;24.742;2023-04-25T22:42:09;23.80;30.10
80228;DHT22;69539;42.138;24.742;2023-04-25T22:44:35;23.80;29.90
80228;DHT22;69539;42.138;24.742;2023-04-25T22:47:01;23.80;29.90
80228;DHT22;69539;42.138;24.742;2023-04-25T22:49:27;23.80;29.90
80228;DHT22;69539;42.138;24.742;2023-04-25T22:51:52;23.80;29.90
80228;DHT22;69539;42.138;24.742;2023-04-25T22:54:20;23.80;29.90
80228;DHT22;69539;42.138;24.742;2023-04-25T22:56:46;23.80;29.90
80228;DHT22;69539;42.138;24.742;2023-04-25T22:59:11;23.80;29.90
80228;DHT22;69539;42.138;24.742;2023-04-25T23:01:37;23.80;29.90
80228;DHT22;69539;42.138;24.742;2023-04-25T23:04:03;23.80;29.90
80228;DHT22;69539;42.138;24.742;2023-04-25T23:06:29;23.80;30.00
80228;DHT22;69539;42.138;24.742;2023-04-25T23:08:55;23.80;30.00
80228;DHT22;69539;42.138;24.742;2023-04-25T23:11:20;23.80;29.90
80228;DHT22;69539;42.138;24.742;2023-04-25T23:13:48;23.80;29.90
80228;DHT22;69539;42.138;24.742;2023-04-25T23:16:14;23.80;29.90
80228;DHT22;69539;42.138;24.742;2023-04-25T23:18:39;23.80;29.90
80228;DHT22;69539;42.138;24.742;2023-04-25T23:21:06;23.80;29.90
80228;DHT22;69539;42.138;24.742;2023-04-25T23:23:33;23.80;29.90
80228;DHT22;69539;42.138;24.742;2023-04-25T23:26:00;23.80;30.00
80228;DHT22;69539;42.138;24.742;2023-04-25T23:28:25;23.80;30.00
80228;DHT22;69539;42.138;24.742;2023-04-25T23:30:51;23.70;30.00
80228;DHT22;69539;42.138;24.742;2023-04-25T23:33:17;23.80;30.00
80228;DHT22;69539;42.138;24.742;2023-04-25T23:35:43;23.80;30.00
80228;DHT22;69539;42.138;24.742;2023-04-25T23:38:08;23.80;30.00
80228;DHT22;69539;42.138;24.742;2023-04-25T23:40:34;23.80;30.00
80228;DHT22;69539;42.138;24.742;2023-04-25T23:43:00;23.80;30.00
80228;DHT22;69539;42.138;24.742;2023-04-25T23:45:27;23.80;30.00
80228;DHT22;69539;42.138;24.742;2023-04-25T23:47:53;23.80;30.00
80228;DHT22;69539;42.138;24.742;2023-04-25T23:50:19;23.80;30.00
80228;DHT22;69539;42.138;24.742;2023-04-25T23:52:44;23.80;30.00
80228;DHT22;69539;42.138;24.742;2023-04-25T23:55:10;23.80;30.00
80228;DHT22;69539;42.138;24.742;2023-04-25T23:57:36;23.70;30.00
